sensor_id;sensor_type;location;lat;lon;timestamp;P1;durP1;ratioP1;P2;durP2;ratioP2
2866;SDS011;1441;48.886;8.728;2023-06-10T00:01:10;10.73;;;6.90;;
2866;SDS011;1441;48.886;8.728;2023-06-10T00:03:35;7.40;;;6.80;;
2866;SDS011;1441;48.886;8.728;2023-06-10T00:06:01;10.10;;;7.10;;
2866;SDS011;1441;48.886;8.728;2023-06-10T00:08:27;8.30;;;7.50;;
2866;SDS011;1441;48.886;8.728;2023-06-10T00:10:56;13.93;;;7.87;;
2866;SDS011;1441;48.886;8.728;2023-06-10T00:13:21;9.47;;;7.10;;
2866;SDS011;1441;48.886;8.728;2023-06-10T00:15:47;8.60;;;6.70;;
2866;SDS011;1441;48.886;8.728;2023-06-10T00:18:13;6.73;;;6.13;;
2866;SDS011;1441;48.886;8.728;2023-06-10T00:20:39;7.47;;;6.77;;
2866;SDS011;1441;48.886;8.728;2023-06-10T00:23:04;6.77;;;6.27;;
2866;SDS011;1441;48.886;8.728;2023-06-10T00:25:33;6.63;;;6.03;;
2866;SDS011;1441;48.886;8.728;2023-06-10T00:27:59;7.07;;;6.47;;
2866;SDS011;1441;48.886;8.728;2023-06-10T00:30:24;7.03;;;6.40;;
2866;SDS011;1441;48.886;8.728;2023-06-10T00:32:50;6.97;;;6.37;;
2866;SDS011;1441;48.886;8.728;2023-06-10T00:35:15;10.73;;;6.47;;
2866;SDS011;1441;48.886;8.728;2023-06-10T00:37:41;9.13;;;6.70;;
2866;SDS011;1441;48.886;8.728;2023-06-10T00:40:07;7.60;;;6.50;;
2866;SDS011;1441;48.886;8.728;2023-06-10T00:42:36;7.40;;;6.67;;
2866;SDS011;1441;48.886;8.728;2023-06-10T00:45:01;8.10;;;7.40;;
2866;SDS011;1441;48.886;8.728;2023-06-10T00:47:27;6.70;;;6.10;;
2866;SDS011;1441;48.886;8.728;2023-06-10T00:49:53;7.60;;;6.90;;
2866;SDS011;1441;48.886;8.728;2023-06-10T00:52:19;6.53;;;6.03;;
2866;SDS011;1441;48.886;8.728;2023-06-10T00:54:47;9.97;;;6.50;;
2866;SDS011;1441;48.886;8.728;2023-06-10T00:57:12;8.03;;;6.73;;
2866;SDS011;1441;48.886;8.728;2023-06-10T00:59:39;8.70;;;7.03;;
2866;SDS011;1441;48.886;8.728;2023-06-10T01:02:06;8.40;;;6.80;;
2866;SDS011;1441;48.886;8.728;2023-06-10T01:04:32;7.93;;;7.20;;
2866;SDS011;1441;48.886;8.728;2023-06-10T01:12:05;7.30;;;6.60;;
2866;SDS011;1441;48.886;8.728;2023-06-10T01:14:42;8.23;;;6.63;;
2866;SDS011;1441;48.886;8.728;2023-06-10T01:17:08;7.83;;;7.23;;
2866;SDS011;1441;48.886;8.728;2023-06-10T01:19:34;10.60;;;6.87;;
2866;SDS011;1441;48.886;8.728;2023-06-10T01:22:01;7.53;;;6.90;;
2866;SDS011;1441;48.886;8.728;2023-06-10T01:24:27;7.63;;;6.93;;
2866;SDS011;1441;48.886;8.728;2023-06-10T01:26:54;7.97;;;7.27;;
2866;SDS011;1441;48.886;8.728;2023-06-10T01:29:27;8.63;;;7.83;;
2866;SDS011;1441;48.886;8.728;2023-06-10T01:32:02;9.10;;;6.27;;
2866;SDS011;1441;48.886;8.728;2023-06-10T01:34:32;7.67;;;6.20;;
2866;SDS011;1441;48.886;8.728;2023-06-10T01:36:59;6.70;;;6.20;;
2866;SDS011;1441;48.886;8.728;2023-06-10T01:39:25;6.37;;;5.83;;
2866;SDS011;1441;48.886;8.728;2023-06-10T01:41:52;7.60;;;6.90;;
2866;SDS011;1441;48.886;8.728;2023-06-10T01:44:20;7.57;;;6.87;;
2866;SDS011;1441;48.886;8.728;2023-06-10T01:46:46;9.33;;;7.20;;
2866;SDS011;1441;48.886;8.728;2023-06-10T01:49:12;7.37;;;6.70;;
2866;SDS011;1441;48.886;8.728;2023-06-10T01:51:38;7.10;;;6.47;;
2866;SDS011;1441;48.886;8.728;2023-06-10T01:54:04;9.90;;;6.90;;
2866;SDS011;1441;48.886;8.728;2023-06-10T01:56:30;7.67;;;6.97;;
2866;SDS011;1441;48.886;8.728;2023-06-10T01:58:56;9.30;;;7.50;;
2866;SDS011;1441;48.886;8.728;2023-06-10T02:01:24;7.60;;;6.97;;
2866;SDS011;1441;48.886;8.728;2023-06-10T02:03:50;6.93;;;6.23;;
2866;SDS011;1441;48.886;8.728;2023-06-10T02:06:16;7.63;;;6.00;;
2866;SDS011;1441;48.886;8.728;2023-06-10T02:08:41;6.90;;;6.30;;
2866;SDS011;1441;48.886;8.728;2023-06-10T02:11:07;9.23;;;6.87;;
2866;SDS011;1441;48.886;8.728;2023-06-10T02:13:32;10.40;;;6.50;;
2866;SDS011;1441;48.886;8.728;2023-06-10T02:15:58;7.10;;;6.40;;
2866;SDS011;1441;48.886;8.728;2023-06-10T02:18:24;7.70;;;6.80;;
2866;SDS011;1441;48.886;8.728;2023-06-10T02:20:52;7.03;;;6.53;;
2866;SDS011;1441;48.886;8.728;2023-06-10T02:23:17;7.33;;;6.73;;
2866;SDS011;1441;48.886;8.728;2023-06-10T02:25:43;7.70;;;6.70;;
2866;SDS011;1441;48.886;8.728;2023-06-10T02:28:08;7.40;;;6.80;;
2866;SDS011;1441;48.886;8.728;2023-06-10T02:30:34;6.47;;;6.03;;
2866;SDS011;1441;48.886;8.728;2023-06-10T02:33:00;8.60;;;7.33;;
2866;SDS011;1441;48.886;8.728;2023-06-10T02:35:26;7.00;;;6.40;;
2866;SDS011;1441;48.886;8.728;2023-06-10T02:37:52;7.67;;;6.63;;
2866;SDS011;1441;48.886;8.728;2023-06-10T02:40:17;7.43;;;6.37;;
2866;SDS011;1441;48.886;8.728;2023-06-10T02:42:43;7.00;;;6.30;;
2866;SDS011;1441;48.886;8.728;2023-06-10T02:45:08;7.07;;;6.37;;
2866;SDS011;1441;48.886;8.728;2023-06-10T02:47:37;7.63;;;5.80;;
2866;SDS011;1441;48.886;8.728;2023-06-10T02:50:04;7.53;;;6.80;;
2866;SDS011;1441;48.886;8.728;2023-06-10T02:52:30;10.50;;;6.43;;
2866;SDS011;1441;48.886;8.728;2023-06-10T02:54:56;6.93;;;6.43;;
2866;SDS011;1441;48.886;8.728;2023-06-10T02:57:22;7.50;;;6.70;;
2866;SDS011;1441;48.886;8.728;2023-06-10T02:59:47;6.93;;;6.43;;
2866;SDS011;1441;48.886;8.728;2023-06-10T03:02:13;8.93;;;8.03;;
2866;SDS011;1441;48.886;8.728;2023-06-10T03:04:38;9.70;;;6.60;;
2866;SDS011;1441;48.886;8.728;2023-06-10T03:07:04;7.90;;;7.20;;
2866;SDS011;1441;48.886;8.728;2023-06-10T03:09:32;7.40;;;6.80;;
2866;SDS011;1441;48.886;8.728;2023-06-10T03:11:58;7.23;;;6.63;;
2866;SDS011;1441;48.886;8.728;2023-06-10T03:14:24;8.10;;;6.73;;
2866;SDS011;1441;48.886;8.728;2023-06-10T03:16:50;8.43;;;7.60;;
2866;SDS011;1441;48.886;8.728;2023-06-10T03:19:16;6.97;;;6.37;;
2866;SDS011;1441;48.886;8.728;2023-06-10T03:21:43;6.57;;;6.00;;
2866;SDS011;1441;48.886;8.728;2023-06-10T03:24:09;7.23;;;6.53;;
2866;SDS011;1441;48.886;8.728;2023-06-10T03:26:35;12.87;;;7.00;;
2866;SDS011;1441;48.886;8.728;2023-06-10T03:29:01;7.17;;;6.57;;
2866;SDS011;1441;48.886;8.728;2023-06-10T03:31:27;8.63;;;6.67;;
2866;SDS011;1441;48.886;8.728;2023-06-10T03:33:52;7.70;;;6.97;;
2866;SDS011;1441;48.886;8.728;2023-06-10T03:36:18;6.20;;;5.70;;
2866;SDS011;1441;48.886;8.728;2023-06-10T03:38:43;6.47;;;5.97;;
2866;SDS011;1441;48.886;8.728;2023-06-10T03:41:09;7.20;;;6.50;;
2866;SDS011;1441;48.886;8.728;2023-06-10T03:43:35;7.17;;;6.47;;
2866;SDS011;1441;48.886;8.728;2023-06-10T03:46:00;6.60;;;6.00;;
2866;SDS011;1441;48.886;8.728;2023-06-10T03:48:26;6.27;;;5.63;;
2866;SDS011;1441;48.886;8.728;2023-06-10T03:50:52;5.83;;;5.33;;
2866;SDS011;1441;48.886;8.728;2023-06-10T03:53:17;5.90;;;5.40;;
2866;SDS011;1441;48.886;8.728;2023-06-10T03:55:43;5.87;;;5.27;;
2866;SDS011;1441;48.886;8.728;2023-06-10T03:58:09;6.13;;;5.73;;
2866;SDS011;1441;48.886;8.728;2023-06-10T04:00:38;4.80;;;4.50;;
2866;SDS011;1441;48.886;8.728;2023-06-10T04:03:06;5.70;;;5.20;;
2866;SDS011;1441;48.886;8.728;2023-06-10T04:05:34;5.97;;;5.47;;
2866;SDS011;1441;48.886;8.728;2023-06-10T04:08:00;6.87;;;4.43;;
2866;SDS011;1441;48.886;8.728;2023-06-10T04:10:26;5.17;;;4.77;;
2866;SDS011;1441;48.886;8.728;2023-06-10T04:12:52;5.40;;;5.00;;
2866;SDS011;1441;48.886;8.728;2023-06-10T04:15:17;6.27;;;5.30;;
2866;SDS011;1441;48.886;8.728;2023-06-10T04:17:43;5.50;;;5.00;;
2866;SDS011;1441;48.886;8.728;2023-06-10T04:20:09;5.43;;;4.87;;
2866;SDS011;1441;48.886;8.728;2023-06-10T04:22:34;8.60;;;5.50;;
2866;SDS011;1441;48.886;8.728;2023-06-10T04:25:01;4.83;;;4.43;;
2866;SDS011;1441;48.886;8.728;2023-06-10T04:27:27;4.77;;;4.37;;
2866;SDS011;1441;48.886;8.728;2023-06-10T04:29:52;5.10;;;4.70;;
2866;SDS011;1441;48.886;8.728;2023-06-10T04:32:18;5.67;;;5.07;;
2866;SDS011;1441;48.886;8.728;2023-06-10T04:34:44;4.97;;;4.57;;
2866;SDS011;1441;48.886;8.728;2023-06-10T04:37:09;4.53;;;4.23;;
2866;SDS011;1441;48.886;8.728;2023-06-10T04:39:35;4.57;;;4.27;;
2866;SDS011;1441;48.886;8.728;2023-06-10T04:42:00;5.73;;;5.23;;
2866;SDS011;1441;48.886;8.728;2023-06-10T04:44:26;7.50;;;6.50;;
2866;SDS011;1441;48.886;8.728;2023-06-10T04:46:52;6.00;;;5.50;;
2866;SDS011;1441;48.886;8.728;2023-06-10T04:49:17;7.20;;;6.60;;
2866;SDS011;1441;48.886;8.728;2023-06-10T04:51:43;7.97;;;7.27;;
2866;SDS011;1441;48.886;8.728;2023-06-10T04:54:08;7.57;;;6.63;;
2866;SDS011;1441;48.886;8.728;2023-06-10T04:56:34;6.80;;;6.20;;
2866;SDS011;1441;48.886;8.728;2023-06-10T04:59:00;7.00;;;6.37;;
2866;SDS011;1441;48.886;8.728;2023-06-10T05:01:25;6.43;;;5.93;;
2866;SDS011;1441;48.886;8.728;2023-06-10T05:03:52;7.90;;;7.10;;
2866;SDS011;1441;48.886;8.728;2023-06-10T05:06:18;6.53;;;5.77;;
2866;SDS011;1441;48.886;8.728;2023-06-10T05:08:43;7.67;;;6.50;;
2866;SDS011;1441;48.886;8.728;2023-06-10T05:11:09;6.83;;;6.13;;
2866;SDS011;1441;48.886;8.728;2023-06-10T05:13:35;6.70;;;6.10;;
2866;SDS011;1441;48.886;8.728;2023-06-10T05:16:00;7.80;;;7.00;;
2866;SDS011;1441;48.886;8.728;2023-06-10T05:18:26;7.03;;;6.27;;
2866;SDS011;1441;48.886;8.728;2023-06-10T05:20:51;6.30;;;5.67;;
2866;SDS011;1441;48.886;8.728;2023-06-10T05:23:18;6.40;;;5.80;;
2866;SDS011;1441;48.886;8.728;2023-06-10T05:25:44;7.43;;;6.73;;
2866;SDS011;1441;48.886;8.728;2023-06-10T05:28:10;6.80;;;6.13;;
2866;SDS011;1441;48.886;8.728;2023-06-10T05:30:36;7.13;;;6.40;;
2866;SDS011;1441;48.886;8.728;2023-06-10T05:33:02;6.87;;;6.20;;
2866;SDS011;1441;48.886;8.728;2023-06-10T05:35:29;6.87;;;6.17;;
2866;SDS011;1441;48.886;8.728;2023-06-10T05:37:54;6.67;;;6.07;;
2866;SDS011;1441;48.886;8.728;2023-06-10T05:40:20;6.70;;;5.60;;
2866;SDS011;1441;48.886;8.728;2023-06-10T05:42:45;6.37;;;5.77;;
2866;SDS011;1441;48.886;8.728;2023-06-10T05:45:11;11.40;;;5.90;;
2866;SDS011;1441;48.886;8.728;2023-06-10T05:47:36;6.23;;;5.00;;
2866;SDS011;1441;48.886;8.728;2023-06-10T05:50:02;5.80;;;5.30;;
2866;SDS011;1441;48.886;8.728;2023-06-10T05:52:32;5.00;;;4.60;;
2866;SDS011;1441;48.886;8.728;2023-06-10T05:55:01;5.40;;;4.90;;
2866;SDS011;1441;48.886;8.728;2023-06-10T05:57:27;4.60;;;4.30;;
2866;SDS011;1441;48.886;8.728;2023-06-10T05:59:53;5.80;;;5.20;;
2866;SDS011;1441;48.886;8.728;2023-06-10T06:02:18;4.70;;;4.30;;
2866;SDS011;1441;48.886;8.728;2023-06-10T06:04:44;6.27;;;4.80;;
2866;SDS011;1441;48.886;8.728;2023-06-10T06:07:09;4.97;;;4.57;;
2866;SDS011;1441;48.886;8.728;2023-06-10T06:09:35;4.30;;;3.90;;
2866;SDS011;1441;48.886;8.728;2023-06-10T06:12:00;3.97;;;3.67;;
2866;SDS011;1441;48.886;8.728;2023-06-10T06:14:26;6.70;;;4.00;;
2866;SDS011;1441;48.886;8.728;2023-06-10T06:16:51;4.10;;;3.90;;
2866;SDS011;1441;48.886;8.728;2023-06-10T06:19:17;3.40;;;3.20;;
2866;SDS011;1441;48.886;8.728;2023-06-10T06:21:43;3.83;;;3.63;;
2866;SDS011;1441;48.886;8.728;2023-06-10T06:24:08;3.03;;;2.90;;
2866;SDS011;1441;48.886;8.728;2023-06-10T06:26:34;3.87;;;3.60;;
2866;SDS011;1441;48.886;8.728;2023-06-10T06:28:59;3.50;;;3.20;;
2866;SDS011;1441;48.886;8.728;2023-06-10T06:31:25;3.83;;;3.50;;
2866;SDS011;1441;48.886;8.728;2023-06-10T06:33:50;3.50;;;3.20;;
2866;SDS011;1441;48.886;8.728;2023-06-10T06:36:16;3.50;;;3.30;;
2866;SDS011;1441;48.886;8.728;2023-06-10T06:38:41;3.87;;;3.63;;
2866;SDS011;1441;48.886;8.728;2023-06-10T06:41:07;3.07;;;2.87;;
2866;SDS011;1441;48.886;8.728;2023-06-10T06:43:33;4.87;;;4.20;;
2866;SDS011;1441;48.886;8.728;2023-06-10T06:45:59;3.80;;;3.60;;
2866;SDS011;1441;48.886;8.728;2023-06-10T06:48:24;3.60;;;3.30;;
2866;SDS011;1441;48.886;8.728;2023-06-10T06:50:50;3.17;;;3.03;;
2866;SDS011;1441;48.886;8.728;2023-06-10T06:53:15;3.70;;;3.50;;
2866;SDS011;1441;48.886;8.728;2023-06-10T06:55:41;3.80;;;3.60;;
2866;SDS011;1441;48.886;8.728;2023-06-10T06:58:07;3.80;;;3.50;;
2866;SDS011;1441;48.886;8.728;2023-06-10T07:00:32;3.57;;;3.23;;
2866;SDS011;1441;48.886;8.728;2023-06-10T07:02:58;3.50;;;3.30;;
2866;SDS011;1441;48.886;8.728;2023-06-10T07:05:24;5.33;;;2.80;;
2866;SDS011;1441;48.886;8.728;2023-06-10T07:07:52;3.70;;;3.30;;
2866;SDS011;1441;48.886;8.728;2023-06-10T07:10:20;3.17;;;2.90;;
2866;SDS011;1441;48.886;8.728;2023-06-10T07:12:47;3.80;;;3.50;;
2866;SDS011;1441;48.886;8.728;2023-06-10T07:15:13;6.13;;;4.03;;
2866;SDS011;1441;48.886;8.728;2023-06-10T07:17:38;3.13;;;3.03;;
2866;SDS011;1441;48.886;8.728;2023-06-10T07:20:04;3.33;;;3.07;;
2866;SDS011;1441;48.886;8.728;2023-06-10T07:22:30;3.30;;;3.10;;
2866;SDS011;1441;48.886;8.728;2023-06-10T07:24:55;4.33;;;3.30;;
2866;SDS011;1441;48.886;8.728;2023-06-10T07:27:21;4.53;;;3.23;;
2866;SDS011;1441;48.886;8.728;2023-06-10T07:29:47;3.07;;;2.90;;
2866;SDS011;1441;48.886;8.728;2023-06-10T07:32:12;3.77;;;3.30;;
2866;SDS011;1441;48.886;8.728;2023-06-10T07:34:38;5.93;;;3.50;;
2866;SDS011;1441;48.886;8.728;2023-06-10T07:37:03;3.17;;;2.97;;
2866;SDS011;1441;48.886;8.728;2023-06-10T07:39:29;3.23;;;2.87;;
2866;SDS011;1441;48.886;8.728;2023-06-10T07:41:55;3.23;;;3.13;;
2866;SDS011;1441;48.886;8.728;2023-06-10T07:44:22;6.53;;;3.27;;
2866;SDS011;1441;48.886;8.728;2023-06-10T07:46:48;3.00;;;2.80;;
2866;SDS011;1441;48.886;8.728;2023-06-10T07:49:13;3.50;;;2.70;;
2866;SDS011;1441;48.886;8.728;2023-06-10T07:51:39;3.60;;;3.10;;
2866;SDS011;1441;48.886;8.728;2023-06-10T07:54:04;4.00;;;3.57;;
2866;SDS011;1441;48.886;8.728;2023-06-10T07:56:30;2.77;;;2.63;;
2866;SDS011;1441;48.886;8.728;2023-06-10T07:58:56;2.90;;;2.80;;
2866;SDS011;1441;48.886;8.728;2023-06-10T08:01:22;2.97;;;2.88;;
2866;SDS011;1441;48.886;8.728;2023-06-10T08:03:49;3.00;;;2.78;;
2866;SDS011;1441;48.886;8.728;2023-06-10T08:06:14;3.15;;;2.95;;
2866;SDS011;1441;48.886;8.728;2023-06-10T08:08:42;9.55;;;3.35;;
2866;SDS011;1441;48.886;8.728;2023-06-10T08:11:09;3.22;;;2.90;;
2866;SDS011;1441;48.886;8.728;2023-06-10T08:13:36;2.25;;;2.15;;
2866;SDS011;1441;48.886;8.728;2023-06-10T08:16:01;2.60;;;2.50;;
2866;SDS011;1441;48.886;8.728;2023-06-10T08:18:28;2.70;;;2.60;;
2866;SDS011;1441;48.886;8.728;2023-06-10T08:20:53;2.38;;;2.28;;
2866;SDS011;1441;48.886;8.728;2023-06-10T08:23:19;2.92;;;2.83;;
2866;SDS011;1441;48.886;8.728;2023-06-10T08:25:45;2.90;;;2.80;;
2866;SDS011;1441;48.886;8.728;2023-06-10T08:28:11;3.25;;;3.08;;
2866;SDS011;1441;48.886;8.728;2023-06-10T08:30:36;3.50;;;3.30;;
2866;SDS011;1441;48.886;8.728;2023-06-10T08:33:02;3.45;;;3.25;;
2866;SDS011;1441;48.886;8.728;2023-06-10T08:35:27;4.20;;;3.92;;
2866;SDS011;1441;48.886;8.728;2023-06-10T08:37:53;4.20;;;3.80;;
2866;SDS011;1441;48.886;8.728;2023-06-10T08:40:19;4.17;;;3.80;;
2866;SDS011;1441;48.886;8.728;2023-06-10T08:45:23;3.40;;;3.20;;
2866;SDS011;1441;48.886;8.728;2023-06-10T08:47:53;3.33;;;3.03;;
2866;SDS011;1441;48.886;8.728;2023-06-10T08:50:22;4.00;;;3.70;;
2866;SDS011;1441;48.886;8.728;2023-06-10T08:52:49;3.60;;;3.40;;
2866;SDS011;1441;48.886;8.728;2023-06-10T08:55:19;3.13;;;3.03;;
2866;SDS011;1441;48.886;8.728;2023-06-10T08:57:51;3.43;;;3.20;;
2866;SDS011;1441;48.886;8.728;2023-06-10T09:00:17;3.40;;;3.20;;
2866;SDS011;1441;48.886;8.728;2023-06-10T09:02:44;3.37;;;3.17;;
2866;SDS011;1441;48.886;8.728;2023-06-10T09:05:10;2.93;;;2.83;;
2866;SDS011;1441;48.886;8.728;2023-06-10T09:07:36;3.33;;;3.10;;
2866;SDS011;1441;48.886;8.728;2023-06-10T09:10:03;3.50;;;2.97;;
2866;SDS011;1441;48.886;8.728;2023-06-10T09:12:31;4.80;;;2.70;;
2866;SDS011;1441;48.886;8.728;2023-06-10T09:14:58;3.60;;;2.83;;
2866;SDS011;1441;48.886;8.728;2023-06-10T09:17:23;2.85;;;2.75;;
2866;SDS011;1441;48.886;8.728;2023-06-10T09:19:49;2.75;;;2.55;;
2866;SDS011;1441;48.886;8.728;2023-06-10T09:22:18;3.45;;;3.15;;
2866;SDS011;1441;48.886;8.728;2023-06-10T09:24:44;2.95;;;2.85;;
2866;SDS011;1441;48.886;8.728;2023-06-10T09:27:12;3.03;;;2.92;;
2866;SDS011;1441;48.886;8.728;2023-06-10T09:29:50;2.70;;;2.60;;
2866;SDS011;1441;48.886;8.728;2023-06-10T09:32:17;4.50;;;3.20;;
2866;SDS011;1441;48.886;8.728;2023-06-10T09:34:44;3.40;;;3.10;;
2866;SDS011;1441;48.886;8.728;2023-06-10T09:37:11;4.20;;;2.73;;
2866;SDS011;1441;48.886;8.728;2023-06-10T09:39:38;2.13;;;2.03;;
2866;SDS011;1441;48.886;8.728;2023-06-10T09:42:15;3.40;;;3.20;;
2866;SDS011;1441;48.886;8.728;2023-06-10T09:44:42;3.13;;;3.03;;
2866;SDS011;1441;48.886;8.728;2023-06-10T09:47:19;3.30;;;3.10;;
2866;SDS011;1441;48.886;8.728;2023-06-10T09:49:48;3.37;;;3.27;;
2866;SDS011;1441;48.886;8.728;2023-06-10T09:52:21;3.50;;;3.30;;
2866;SDS011;1441;48.886;8.728;2023-06-10T09:54:47;4.40;;;4.00;;
2866;SDS011;1441;48.886;8.728;2023-06-10T09:57:13;3.70;;;3.40;;
2866;SDS011;1441;48.886;8.728;2023-06-10T09:59:39;3.57;;;3.37;;
2866;SDS011;1441;48.886;8.728;2023-06-10T10:02:06;3.53;;;3.33;;
2866;SDS011;1441;48.886;8.728;2023-06-10T10:04:38;4.10;;;3.80;;
2866;SDS011;1441;48.886;8.728;2023-06-10T10:07:03;4.37;;;4.03;;
2866;SDS011;1441;48.886;8.728;2023-06-10T10:09:29;6.40;;;3.73;;
2866;SDS011;1441;48.886;8.728;2023-06-10T10:11:55;4.43;;;4.00;;
2866;SDS011;1441;48.886;8.728;2023-06-10T10:14:22;3.77;;;3.57;;
2866;SDS011;1441;48.886;8.728;2023-06-10T10:16:48;4.40;;;4.10;;
2866;SDS011;1441;48.886;8.728;2023-06-10T10:19:16;3.63;;;3.37;;
2866;SDS011;1441;48.886;8.728;2023-06-10T10:21:56;3.50;;;3.30;;
2866;SDS011;1441;48.886;8.728;2023-06-10T10:24:36;4.17;;;3.83;;
2866;SDS011;1441;48.886;8.728;2023-06-10T10:27:11;7.67;;;4.00;;
2866;SDS011;1441;48.886;8.728;2023-06-10T10:29:42;4.67;;;4.27;;
2866;SDS011;1441;48.886;8.728;2023-06-10T10:32:12;4.23;;;3.90;;
2866;SDS011;1441;48.886;8.728;2023-06-10T10:37:30;4.30;;;3.90;;
2866;SDS011;1441;48.886;8.728;2023-06-10T10:39:56;4.13;;;3.83;;
2866;SDS011;1441;48.886;8.728;2023-06-10T10:42:22;4.43;;;4.03;;
2866;SDS011;1441;48.886;8.728;2023-06-10T10:44:49;3.90;;;3.50;;
2866;SDS011;1441;48.886;8.728;2023-06-10T10:47:16;3.57;;;3.37;;
2866;SDS011;1441;48.886;8.728;2023-06-10T10:49:46;4.50;;;4.20;;
2866;SDS011;1441;48.886;8.728;2023-06-10T10:52:15;4.70;;;4.40;;
2866;SDS011;1441;48.886;8.728;2023-06-10T10:54:44;4.50;;;4.07;;
2866;SDS011;1441;48.886;8.728;2023-06-10T10:57:12;4.70;;;4.40;;
2866;SDS011;1441;48.886;8.728;2023-06-10T10:59:56;4.20;;;3.90;;
2866;SDS011;1441;48.886;8.728;2023-06-10T11:05:09;4.43;;;4.13;;
2866;SDS011;1441;48.886;8.728;2023-06-10T11:07:39;4.37;;;4.07;;
2866;SDS011;1441;48.886;8.728;2023-06-10T11:10:09;4.07;;;3.87;;
2866;SDS011;1441;48.886;8.728;2023-06-10T11:13:09;4.40;;;4.10;;
2866;SDS011;1441;48.886;8.728;2023-06-10T11:15:31;4.70;;;4.33;;
2866;SDS011;1441;48.886;8.728;2023-06-10T11:28:38;4.80;;;4.40;;
2866;SDS011;1441;48.886;8.728;2023-06-10T11:31:04;6.27;;;4.53;;
2866;SDS011;1441;48.886;8.728;2023-06-10T11:33:29;9.03;;;4.67;;
2866;SDS011;1441;48.886;8.728;2023-06-10T11:35:56;4.60;;;3.70;;
2866;SDS011;1441;48.886;8.728;2023-06-10T11:38:23;4.70;;;4.30;;
2866;SDS011;1441;48.886;8.728;2023-06-10T11:40:49;5.73;;;3.93;;
2866;SDS011;1441;48.886;8.728;2023-06-10T11:43:16;4.80;;;4.50;;
2866;SDS011;1441;48.886;8.728;2023-06-10T11:45:42;3.53;;;3.33;;
2866;SDS011;1441;48.886;8.728;2023-06-10T11:48:09;4.70;;;4.00;;
2866;SDS011;1441;48.886;8.728;2023-06-10T11:50:34;4.93;;;4.53;;
2866;SDS011;1441;48.886;8.728;2023-06-10T11:53:01;4.63;;;4.23;;
2866;SDS011;1441;48.886;8.728;2023-06-10T11:55:43;4.00;;;3.70;;
2866;SDS011;1441;48.886;8.728;2023-06-10T11:58:17;4.70;;;4.30;;
2866;SDS011;1441;48.886;8.728;2023-06-10T12:00:50;6.13;;;4.03;;
2866;SDS011;1441;48.886;8.728;2023-06-10T12:03:18;4.10;;;3.90;;
2866;SDS011;1441;48.886;8.728;2023-06-10T12:05:57;4.10;;;3.80;;
2866;SDS011;1441;48.886;8.728;2023-06-10T12:08:27;4.27;;;3.87;;
2866;SDS011;1441;48.886;8.728;2023-06-10T12:10:53;5.10;;;4.70;;
2866;SDS011;1441;48.886;8.728;2023-06-10T12:13:20;3.80;;;3.60;;
2866;SDS011;1441;48.886;8.728;2023-06-10T12:15:46;4.37;;;3.97;;
2866;SDS011;1441;48.886;8.728;2023-06-10T12:18:19;3.70;;;3.50;;
2866;SDS011;1441;48.886;8.728;2023-06-10T12:20:48;3.90;;;3.60;;
2866;SDS011;1441;48.886;8.728;2023-06-10T12:23:15;3.53;;;3.30;;
2866;SDS011;1441;48.886;8.728;2023-06-10T12:25:51;4.23;;;3.90;;
2866;SDS011;1441;48.886;8.728;2023-06-10T12:28:20;3.60;;;3.30;;
2866;SDS011;1441;48.886;8.728;2023-06-10T12:30:50;3.73;;;3.50;;
2866;SDS011;1441;48.886;8.728;2023-06-10T12:33:19;3.40;;;3.20;;
2866;SDS011;1441;48.886;8.728;2023-06-10T12:35:49;4.40;;;4.10;;
2866;SDS011;1441;48.886;8.728;2023-06-10T12:38:22;3.90;;;3.60;;
2866;SDS011;1441;48.886;8.728;2023-06-10T12:41:01;3.60;;;3.40;;
2866;SDS011;1441;48.886;8.728;2023-06-10T12:43:28;3.70;;;3.50;;
2866;SDS011;1441;48.886;8.728;2023-06-10T12:45:56;4.10;;;3.80;;
2866;SDS011;1441;48.886;8.728;2023-06-10T12:48:34;3.40;;;3.20;;
2866;SDS011;1441;48.886;8.728;2023-06-10T12:50:59;4.20;;;3.90;;
2866;SDS011;1441;48.886;8.728;2023-06-10T12:53:25;3.87;;;3.57;;
2866;SDS011;1441;48.886;8.728;2023-06-10T12:55:54;3.90;;;3.60;;
2866;SDS011;1441;48.886;8.728;2023-06-10T12:58:20;4.77;;;3.00;;
2866;SDS011;1441;48.886;8.728;2023-06-10T13:00:47;4.27;;;3.87;;
2866;SDS011;1441;48.886;8.728;2023-06-10T13:03:13;3.87;;;3.57;;
2866;SDS011;1441;48.886;8.728;2023-06-10T13:05:39;5.83;;;3.63;;
2866;SDS011;1441;48.886;8.728;2023-06-10T13:08:05;3.73;;;3.50;;
2866;SDS011;1441;48.886;8.728;2023-06-10T13:10:32;3.37;;;3.17;;
2866;SDS011;1441;48.886;8.728;2023-06-10T13:12:59;3.80;;;3.57;;
2866;SDS011;1441;48.886;8.728;2023-06-10T13:15:25;3.47;;;3.27;;
2866;SDS011;1441;48.886;8.728;2023-06-10T13:17:51;6.83;;;3.17;;
2866;SDS011;1441;48.886;8.728;2023-06-10T13:20:17;3.80;;;3.60;;
2866;SDS011;1441;48.886;8.728;2023-06-10T13:22:44;3.20;;;3.00;;
2866;SDS011;1441;48.886;8.728;2023-06-10T13:25:10;4.10;;;3.67;;
2866;SDS011;1441;48.886;8.728;2023-06-10T13:27:36;3.63;;;3.43;;
2866;SDS011;1441;48.886;8.728;2023-06-10T13:30:06;4.37;;;4.17;;
2866;SDS011;1441;48.886;8.728;2023-06-10T13:32:33;3.90;;;3.70;;
2866;SDS011;1441;48.886;8.728;2023-06-10T13:34:59;4.00;;;3.67;;
2866;SDS011;1441;48.886;8.728;2023-06-10T13:37:25;3.50;;;3.30;;
2866;SDS011;1441;48.886;8.728;2023-06-10T13:39:51;3.90;;;3.60;;
2866;SDS011;1441;48.886;8.728;2023-06-10T13:42:17;4.27;;;3.97;;
2866;SDS011;1441;48.886;8.728;2023-06-10T13:44:43;3.70;;;3.33;;
2866;SDS011;1441;48.886;8.728;2023-06-10T13:47:08;4.30;;;3.90;;
2866;SDS011;1441;48.886;8.728;2023-06-10T13:49:34;3.70;;;3.50;;
2866;SDS011;1441;48.886;8.728;2023-06-10T13:52:00;4.00;;;3.70;;
2866;SDS011;1441;48.886;8.728;2023-06-10T13:54:26;3.63;;;3.43;;
2866;SDS011;1441;48.886;8.728;2023-06-10T13:56:52;3.60;;;3.37;;
2866;SDS011;1441;48.886;8.728;2023-06-10T13:59:18;3.87;;;3.57;;
2866;SDS011;1441;48.886;8.728;2023-06-10T14:01:44;3.63;;;3.43;;
2866;SDS011;1441;48.886;8.728;2023-06-10T14:04:10;3.50;;;3.20;;
2866;SDS011;1441;48.886;8.728;2023-06-10T14:06:35;4.07;;;3.50;;
2866;SDS011;1441;48.886;8.728;2023-06-10T14:09:01;3.37;;;3.27;;
2866;SDS011;1441;48.886;8.728;2023-06-10T14:11:26;5.23;;;3.70;;
2866;SDS011;1441;48.886;8.728;2023-06-10T14:13:52;3.67;;;3.37;;
2866;SDS011;1441;48.886;8.728;2023-06-10T14:16:17;4.40;;;3.20;;
2866;SDS011;1441;48.886;8.728;2023-06-10T14:18:43;3.13;;;2.93;;
2866;SDS011;1441;48.886;8.728;2023-06-10T14:21:08;3.67;;;3.30;;
2866;SDS011;1441;48.886;8.728;2023-06-10T14:23:34;3.13;;;2.93;;
2866;SDS011;1441;48.886;8.728;2023-06-10T14:26:00;2.97;;;2.87;;
2866;SDS011;1441;48.886;8.728;2023-06-10T14:28:27;3.23;;;3.13;;
2866;SDS011;1441;48.886;8.728;2023-06-10T14:30:54;3.87;;;3.43;;
2866;SDS011;1441;48.886;8.728;2023-06-10T14:33:23;3.27;;;3.00;;
2866;SDS011;1441;48.886;8.728;2023-06-10T14:35:49;4.70;;;3.30;;
2866;SDS011;1441;48.886;8.728;2023-06-10T14:38:15;3.30;;;3.10;;
2866;SDS011;1441;48.886;8.728;2023-06-10T14:40:41;3.10;;;2.90;;
2866;SDS011;1441;48.886;8.728;2023-06-10T14:43:07;3.43;;;3.13;;
2866;SDS011;1441;48.886;8.728;2023-06-10T14:45:38;2.97;;;2.77;;
2866;SDS011;1441;48.886;8.728;2023-06-10T14:48:05;8.73;;;3.10;;
2866;SDS011;1441;48.886;8.728;2023-06-10T14:50:32;2.70;;;2.60;;
2866;SDS011;1441;48.886;8.728;2023-06-10T14:52:58;6.77;;;3.07;;
2866;SDS011;1441;48.886;8.728;2023-06-10T14:55:24;4.60;;;2.80;;
2866;SDS011;1441;48.886;8.728;2023-06-10T14:57:50;3.30;;;3.20;;
2866;SDS011;1441;48.886;8.728;2023-06-10T15:00:15;4.33;;;2.90;;
2866;SDS011;1441;48.886;8.728;2023-06-10T15:02:45;2.93;;;2.73;;
2866;SDS011;1441;48.886;8.728;2023-06-10T15:05:14;3.00;;;2.80;;
2866;SDS011;1441;48.886;8.728;2023-06-10T15:07:43;2.60;;;2.50;;
2866;SDS011;1441;48.886;8.728;2023-06-10T15:10:09;2.97;;;2.77;;
2866;SDS011;1441;48.886;8.728;2023-06-10T15:12:35;3.60;;;2.93;;
2866;SDS011;1441;48.886;8.728;2023-06-10T15:15:01;3.57;;;3.33;;
2866;SDS011;1441;48.886;8.728;2023-06-10T15:17:27;2.50;;;2.40;;
2866;SDS011;1441;48.886;8.728;2023-06-10T15:19:53;2.93;;;2.73;;
2866;SDS011;1441;48.886;8.728;2023-06-10T15:22:19;2.90;;;2.70;;
2866;SDS011;1441;48.886;8.728;2023-06-10T15:24:45;4.90;;;4.60;;
2866;SDS011;1441;48.886;8.728;2023-06-10T15:27:10;4.20;;;3.90;;
2866;SDS011;1441;48.886;8.728;2023-06-10T15:29:36;2.97;;;2.77;;
2866;SDS011;1441;48.886;8.728;2023-06-10T15:32:01;2.70;;;2.40;;
2866;SDS011;1441;48.886;8.728;2023-06-10T15:34:27;3.17;;;2.97;;
2866;SDS011;1441;48.886;8.728;2023-06-10T15:36:53;3.07;;;2.87;;